sensor_id;sensor_type;location;lat;lon;timestamp;P1;durP1;ratioP1;P2;durP2;ratioP2
12567;SDS011;6349;50.904;6.136;2024-03-17T00:01:35;4.13;;;3.80;;
12567;SDS011;6349;50.904;6.136;2024-03-17T00:03:41;4.10;;;3.70;;
12567;SDS011;6349;50.904;6.136;2024-03-17T00:05:42;5.23;;;4.13;;
12567;SDS011;6349;50.904;6.136;2024-03-17T00:07:42;4.67;;;4.20;;
12567;SDS011;6349;50.904;6.136;2024-03-17T00:09:43;4.83;;;4.33;;
12567;SDS011;6349;50.904;6.136;2024-03-17T00:11:44;4.43;;;3.93;;
12567;SDS011;6349;50.904;6.136;2024-03-17T00:13:45;4.70;;;4.30;;
12567;SDS011;6349;50.904;6.136;2024-03-17T00:15:46;4.47;;;4.07;;
12567;SDS011;6349;50.904;6.136;2024-03-17T00:17:46;4.30;;;3.90;;
12567;SDS011;6349;50.904;6.136;2024-03-17T00:19:47;4.53;;;4.13;;
12567;SDS011;6349;50.904;6.136;2024-03-17T00:21:48;4.40;;;4.00;;
12567;SDS011;6349;50.904;6.136;2024-03-17T00:23:50;4.40;;;4.00;;
12567;SDS011;6349;50.904;6.136;2024-03-17T00:25:51;4.20;;;3.80;;
12567;SDS011;6349;50.904;6.136;2024-03-17T00:27:51;4.43;;;3.87;;
12567;SDS011;6349;50.904;6.136;2024-03-17T00:29:55;4.33;;;4.00;;
12567;SDS011;6349;50.904;6.136;2024-03-17T00:31:56;4.37;;;3.97;;
12567;SDS011;6349;50.904;6.136;2024-03-17T00:33:56;3.90;;;3.60;;
12567;SDS011;6349;50.904;6.136;2024-03-17T00:35:59;4.17;;;3.67;;
12567;SDS011;6349;50.904;6.136;2024-03-17T00:37:59;4.00;;;3.63;;
12567;SDS011;6349;50.904;6.136;2024-03-17T00:40:04;3.60;;;3.30;;
12567;SDS011;6349;50.904;6.136;2024-03-17T00:42:06;3.93;;;3.40;;
12567;SDS011;6349;50.904;6.136;2024-03-17T00:44:06;4.10;;;3.70;;
12567;SDS011;6349;50.904;6.136;2024-03-17T00:46:07;4.77;;;3.83;;
12567;SDS011;6349;50.904;6.136;2024-03-17T00:48:07;3.53;;;3.23;;
12567;SDS011;6349;50.904;6.136;2024-03-17T00:50:09;3.50;;;3.20;;
12567;SDS011;6349;50.904;6.136;2024-03-17T00:52:11;4.20;;;3.50;;
12567;SDS011;6349;50.904;6.136;2024-03-17T00:54:12;4.17;;;3.70;;
12567;SDS011;6349;50.904;6.136;2024-03-17T00:56:12;3.80;;;3.40;;
12567;SDS011;6349;50.904;6.136;2024-03-17T00:58:13;3.37;;;3.07;;
12567;SDS011;6349;50.904;6.136;2024-03-17T01:00:13;3.47;;;3.17;;
12567;SDS011;6349;50.904;6.136;2024-03-17T01:02:15;3.63;;;3.33;;
12567;SDS011;6349;50.904;6.136;2024-03-17T01:04:18;3.60;;;3.30;;
12567;SDS011;6349;50.904;6.136;2024-03-17T01:06:19;4.13;;;3.10;;
12567;SDS011;6349;50.904;6.136;2024-03-17T01:08:20;3.43;;;2.97;;
12567;SDS011;6349;50.904;6.136;2024-03-17T01:10:20;3.83;;;3.50;;
12567;SDS011;6349;50.904;6.136;2024-03-17T01:12:21;3.00;;;2.70;;
12567;SDS011;6349;50.904;6.136;2024-03-17T01:14:21;3.27;;;2.70;;
12567;SDS011;6349;50.904;6.136;2024-03-17T01:16:22;3.40;;;3.00;;
12567;SDS011;6349;50.904;6.136;2024-03-17T01:18:23;3.00;;;2.80;;
12567;SDS011;6349;50.904;6.136;2024-03-17T01:20:23;3.40;;;3.00;;
12567;SDS011;6349;50.904;6.136;2024-03-17T01:22:24;2.93;;;2.73;;
12567;SDS011;6349;50.904;6.136;2024-03-17T01:24:24;3.17;;;2.87;;
12567;SDS011;6349;50.904;6.136;2024-03-17T01:26:25;2.70;;;2.50;;
12567;SDS011;6349;50.904;6.136;2024-03-17T01:28:25;3.00;;;2.80;;
12567;SDS011;6349;50.904;6.136;2024-03-17T01:30:27;3.03;;;2.70;;
12567;SDS011;6349;50.904;6.136;2024-03-17T01:32:27;3.20;;;2.90;;
12567;SDS011;6349;50.904;6.136;2024-03-17T01:34:28;3.07;;;2.77;;
12567;SDS011;6349;50.904;6.136;2024-03-17T01:36:29;3.00;;;2.80;;
12567;SDS011;6349;50.904;6.136;2024-03-17T01:38:29;2.70;;;2.50;;
12567;SDS011;6349;50.904;6.136;2024-03-17T01:40:30;3.10;;;2.80;;
12567;SDS011;6349;50.904;6.136;2024-03-17T01:42:31;3.13;;;2.63;;
12567;SDS011;6349;50.904;6.136;2024-03-17T01:44:31;2.83;;;2.53;;
12567;SDS011;6349;50.904;6.136;2024-03-17T01:46:32;2.80;;;2.60;;
12567;SDS011;6349;50.904;6.136;2024-03-17T01:48:32;3.03;;;2.57;;
12567;SDS011;6349;50.904;6.136;2024-03-17T01:50:36;2.90;;;2.60;;
12567;SDS011;6349;50.904;6.136;2024-03-17T01:52:38;2.80;;;2.57;;
12567;SDS011;6349;50.904;6.136;2024-03-17T01:54:39;2.83;;;2.60;;
12567;SDS011;6349;50.904;6.136;2024-03-17T01:56:41;2.50;;;2.30;;
12567;SDS011;6349;50.904;6.136;2024-03-17T01:58:43;2.93;;;2.63;;
12567;SDS011;6349;50.904;6.136;2024-03-17T02:00:44;2.23;;;2.03;;
12567;SDS011;6349;50.904;6.136;2024-03-17T02:02:45;3.73;;;2.50;;
12567;SDS011;6349;50.904;6.136;2024-03-17T02:04:46;2.50;;;2.30;;
12567;SDS011;6349;50.904;6.136;2024-03-17T02:06:47;2.80;;;2.57;;
12567;SDS011;6349;50.904;6.136;2024-03-17T02:08:49;2.73;;;2.53;;
12567;SDS011;6349;50.904;6.136;2024-03-17T02:10:54;2.63;;;2.43;;
12567;SDS011;6349;50.904;6.136;2024-03-17T02:12:55;3.53;;;2.30;;
12567;SDS011;6349;50.904;6.136;2024-03-17T02:14:57;2.30;;;2.10;;
12567;SDS011;6349;50.904;6.136;2024-03-17T02:17:00;2.60;;;2.40;;
12567;SDS011;6349;50.904;6.136;2024-03-17T02:19:01;2.20;;;2.07;;
12567;SDS011;6349;50.904;6.136;2024-03-17T02:21:01;2.20;;;2.10;;
12567;SDS011;6349;50.904;6.136;2024-03-17T02:23:02;2.47;;;2.13;;
12567;SDS011;6349;50.904;6.136;2024-03-17T02:25:03;2.53;;;2.33;;
12567;SDS011;6349;50.904;6.136;2024-03-17T02:27:04;2.57;;;2.20;;
12567;SDS011;6349;50.904;6.136;2024-03-17T02:29:05;2.23;;;2.03;;
12567;SDS011;6349;50.904;6.136;2024-03-17T02:31:06;2.47;;;2.10;;
12567;SDS011;6349;50.904;6.136;2024-03-17T02:33:08;2.30;;;2.10;;
12567;SDS011;6349;50.904;6.136;2024-03-17T02:35:08;2.30;;;2.10;;
12567;SDS011;6349;50.904;6.136;2024-03-17T02:37:11;3.10;;;2.10;;
12567;SDS011;6349;50.904;6.136;2024-03-17T02:39:12;2.30;;;2.10;;
12567;SDS011;6349;50.904;6.136;2024-03-17T02:41:34;2.67;;;2.30;;
12567;SDS011;6349;50.904;6.136;2024-03-17T02:43:34;2.37;;;2.10;;
12567;SDS011;6349;50.904;6.136;2024-03-17T02:45:35;2.67;;;2.27;;
12567;SDS011;6349;50.904;6.136;2024-03-17T02:47:36;2.23;;;2.03;;
12567;SDS011;6349;50.904;6.136;2024-03-17T02:49:37;2.40;;;2.20;;
12567;SDS011;6349;50.904;6.136;2024-03-17T02:51:39;2.50;;;2.30;;
12567;SDS011;6349;50.904;6.136;2024-03-17T02:53:43;2.67;;;2.27;;
12567;SDS011;6349;50.904;6.136;2024-03-17T02:55:47;3.90;;;2.47;;
12567;SDS011;6349;50.904;6.136;2024-03-17T02:57:48;2.90;;;2.23;;
12567;SDS011;6349;50.904;6.136;2024-03-17T02:59:48;2.53;;;2.03;;
12567;SDS011;6349;50.904;6.136;2024-03-17T03:01:49;2.40;;;2.20;;
12567;SDS011;6349;50.904;6.136;2024-03-17T03:03:49;2.73;;;2.53;;
12567;SDS011;6349;50.904;6.136;2024-03-17T03:05:50;2.47;;;2.27;;
12567;SDS011;6349;50.904;6.136;2024-03-17T03:07:52;2.60;;;2.00;;
12567;SDS011;6349;50.904;6.136;2024-03-17T03:09:53;2.67;;;2.43;;
12567;SDS011;6349;50.904;6.136;2024-03-17T03:11:54;2.73;;;2.53;;
12567;SDS011;6349;50.904;6.136;2024-03-17T03:13:54;2.43;;;2.23;;
12567;SDS011;6349;50.904;6.136;2024-03-17T03:15:55;2.40;;;2.20;;
12567;SDS011;6349;50.904;6.136;2024-03-17T03:17:55;2.33;;;2.13;;
12567;SDS011;6349;50.904;6.136;2024-03-17T03:19:56;3.60;;;2.37;;
12567;SDS011;6349;50.904;6.136;2024-03-17T03:21:56;3.20;;;2.47;;
12567;SDS011;6349;50.904;6.136;2024-03-17T03:23:57;2.40;;;2.20;;
12567;SDS011;6349;50.904;6.136;2024-03-17T03:25:58;2.30;;;2.10;;
12567;SDS011;6349;50.904;6.136;2024-03-17T03:27:59;2.50;;;2.30;;
12567;SDS011;6349;50.904;6.136;2024-03-17T03:30:00;3.27;;;2.53;;
12567;SDS011;6349;50.904;6.136;2024-03-17T03:32:00;2.43;;;2.23;;
12567;SDS011;6349;50.904;6.136;2024-03-17T03:34:02;2.77;;;2.37;;
12567;SDS011;6349;50.904;6.136;2024-03-17T03:36:12;3.10;;;2.80;;
12567;SDS011;6349;50.904;6.136;2024-03-17T03:38:14;3.03;;;2.73;;
12567;SDS011;6349;50.904;6.136;2024-03-17T03:40:15;2.60;;;2.33;;
12567;SDS011;6349;50.904;6.136;2024-03-17T03:42:16;3.77;;;2.53;;
12567;SDS011;6349;50.904;6.136;2024-03-17T03:44:17;2.63;;;2.40;;
12567;SDS011;6349;50.904;6.136;2024-03-17T03:46:18;2.90;;;2.50;;
12567;SDS011;6349;50.904;6.136;2024-03-17T03:48:19;2.93;;;2.60;;
12567;SDS011;6349;50.904;6.136;2024-03-17T03:50:20;2.90;;;2.70;;
12567;SDS011;6349;50.904;6.136;2024-03-17T03:52:22;2.70;;;2.50;;
12567;SDS011;6349;50.904;6.136;2024-03-17T03:54:22;2.97;;;2.57;;
12567;SDS011;6349;50.904;6.136;2024-03-17T03:56:24;3.00;;;2.70;;
12567;SDS011;6349;50.904;6.136;2024-03-17T03:58:25;2.70;;;2.50;;
12567;SDS011;6349;50.904;6.136;2024-03-17T04:00:26;2.67;;;2.47;;
12567;SDS011;6349;50.904;6.136;2024-03-17T04:02:31;3.33;;;3.03;;
12567;SDS011;6349;50.904;6.136;2024-03-17T04:04:33;2.80;;;2.60;;
12567;SDS011;6349;50.904;6.136;2024-03-17T04:06:34;2.63;;;2.43;;
12567;SDS011;6349;50.904;6.136;2024-03-17T04:08:37;3.40;;;3.00;;
12567;SDS011;6349;50.904;6.136;2024-03-17T04:10:43;3.03;;;2.73;;
12567;SDS011;6349;50.904;6.136;2024-03-17T04:12:44;2.67;;;2.47;;
12567;SDS011;6349;50.904;6.136;2024-03-17T04:14:44;3.10;;;2.60;;
12567;SDS011;6349;50.904;6.136;2024-03-17T04:16:46;3.10;;;2.80;;
12567;SDS011;6349;50.904;6.136;2024-03-17T04:18:47;3.10;;;2.80;;
12567;SDS011;6349;50.904;6.136;2024-03-17T04:20:47;2.70;;;2.30;;
12567;SDS011;6349;50.904;6.136;2024-03-17T04:22:48;3.03;;;2.73;;
12567;SDS011;6349;50.904;6.136;2024-03-17T04:24:49;3.20;;;2.90;;
12567;SDS011;6349;50.904;6.136;2024-03-17T04:26:53;2.73;;;2.53;;
12567;SDS011;6349;50.904;6.136;2024-03-17T04:28:54;3.03;;;2.73;;
12567;SDS011;6349;50.904;6.136;2024-03-17T04:31:02;3.40;;;2.47;;
12567;SDS011;6349;50.904;6.136;2024-03-17T04:33:05;3.47;;;2.60;;
12567;SDS011;6349;50.904;6.136;2024-03-17T04:35:06;3.10;;;2.73;;
12567;SDS011;6349;50.904;6.136;2024-03-17T04:37:07;2.97;;;2.70;;
12567;SDS011;6349;50.904;6.136;2024-03-17T04:39:08;3.07;;;2.70;;
12567;SDS011;6349;50.904;6.136;2024-03-17T04:41:08;3.47;;;2.60;;
12567;SDS011;6349;50.904;6.136;2024-03-17T04:43:09;2.70;;;2.50;;
12567;SDS011;6349;50.904;6.136;2024-03-17T04:45:10;3.00;;;2.63;;
12567;SDS011;6349;50.904;6.136;2024-03-17T04:47:11;2.83;;;2.60;;
12567;SDS011;6349;50.904;6.136;2024-03-17T04:49:12;2.73;;;2.53;;
12567;SDS011;6349;50.904;6.136;2024-03-17T04:51:14;3.00;;;2.70;;
12567;SDS011;6349;50.904;6.136;2024-03-17T04:53:16;2.97;;;2.67;;
12567;SDS011;6349;50.904;6.136;2024-03-17T04:55:16;3.33;;;2.53;;
12567;SDS011;6349;50.904;6.136;2024-03-17T04:57:17;3.03;;;2.80;;
12567;SDS011;6349;50.904;6.136;2024-03-17T04:59:18;2.63;;;2.43;;
12567;SDS011;6349;50.904;6.136;2024-03-17T05:01:18;2.60;;;2.40;;
12567;SDS011;6349;50.904;6.136;2024-03-17T05:03:19;2.53;;;2.33;;
12567;SDS011;6349;50.904;6.136;2024-03-17T05:05:20;2.40;;;2.20;;
12567;SDS011;6349;50.904;6.136;2024-03-17T05:07:21;3.37;;;2.23;;
12567;SDS011;6349;50.904;6.136;2024-03-17T05:09:21;2.43;;;2.23;;
12567;SDS011;6349;50.904;6.136;2024-03-17T05:11:22;2.93;;;2.30;;
12567;SDS011;6349;50.904;6.136;2024-03-17T05:13:24;3.50;;;2.23;;
12567;SDS011;6349;50.904;6.136;2024-03-17T05:15:26;2.63;;;2.33;;
12567;SDS011;6349;50.904;6.136;2024-03-17T05:17:27;2.30;;;2.10;;
12567;SDS011;6349;50.904;6.136;2024-03-17T05:19:27;2.67;;;2.47;;
12567;SDS011;6349;50.904;6.136;2024-03-17T05:21:28;2.70;;;2.50;;
12567;SDS011;6349;50.904;6.136;2024-03-17T05:23:31;2.90;;;2.60;;
12567;SDS011;6349;50.904;6.136;2024-03-17T05:25:33;3.30;;;2.40;;
12567;SDS011;6349;50.904;6.136;2024-03-17T05:27:36;2.60;;;2.40;;
12567;SDS011;6349;50.904;6.136;2024-03-17T05:29:37;2.97;;;2.57;;
12567;SDS011;6349;50.904;6.136;2024-03-17T05:31:37;2.80;;;2.50;;
12567;SDS011;6349;50.904;6.136;2024-03-17T05:33:43;2.50;;;2.30;;
12567;SDS011;6349;50.904;6.136;2024-03-17T05:35:48;3.27;;;2.37;;
12567;SDS011;6349;50.904;6.136;2024-03-17T05:37:49;2.93;;;2.20;;
12567;SDS011;6349;50.904;6.136;2024-03-17T05:39:50;2.87;;;2.67;;
12567;SDS011;6349;50.904;6.136;2024-03-17T05:41:51;2.97;;;2.57;;
12567;SDS011;6349;50.904;6.136;2024-03-17T05:43:51;2.83;;;2.47;;
12567;SDS011;6349;50.904;6.136;2024-03-17T05:45:53;2.47;;;2.27;;
12567;SDS011;6349;50.904;6.136;2024-03-17T05:47:54;2.43;;;2.23;;
12567;SDS011;6349;50.904;6.136;2024-03-17T05:49:56;2.67;;;2.47;;
12567;SDS011;6349;50.904;6.136;2024-03-17T05:51:56;3.00;;;2.70;;
12567;SDS011;6349;50.904;6.136;2024-03-17T05:53:57;3.43;;;2.50;;
12567;SDS011;6349;50.904;6.136;2024-03-17T05:55:59;2.80;;;2.30;;
12567;SDS011;6349;50.904;6.136;2024-03-17T05:58:00;2.70;;;2.40;;
12567;SDS011;6349;50.904;6.136;2024-03-17T06:00:01;3.70;;;2.63;;
12567;SDS011;6349;50.904;6.136;2024-03-17T06:02:02;3.13;;;2.20;;
12567;SDS011;6349;50.904;6.136;2024-03-17T06:04:03;3.03;;;2.73;;
12567;SDS011;6349;50.904;6.136;2024-03-17T06:06:05;2.63;;;2.43;;
12567;SDS011;6349;50.904;6.136;2024-03-17T06:08:12;2.77;;;2.57;;
12567;SDS011;6349;50.904;6.136;2024-03-17T06:10:13;3.67;;;2.37;;
12567;SDS011;6349;50.904;6.136;2024-03-17T06:12:14;3.07;;;2.40;;
12567;SDS011;6349;50.904;6.136;2024-03-17T06:14:14;2.67;;;2.20;;
12567;SDS011;6349;50.904;6.136;2024-03-17T06:16:15;3.23;;;2.60;;
12567;SDS011;6349;50.904;6.136;2024-03-17T06:18:15;4.10;;;2.70;;
12567;SDS011;6349;50.904;6.136;2024-03-17T06:20:18;2.37;;;2.17;;
12567;SDS011;6349;50.904;6.136;2024-03-17T06:22:19;2.80;;;2.50;;
12567;SDS011;6349;50.904;6.136;2024-03-17T06:24:20;2.83;;;2.50;;
12567;SDS011;6349;50.904;6.136;2024-03-17T06:26:20;3.23;;;2.50;;
12567;SDS011;6349;50.904;6.136;2024-03-17T06:28:21;2.57;;;2.37;;
12567;SDS011;6349;50.904;6.136;2024-03-17T06:30:22;2.50;;;2.30;;
12567;SDS011;6349;50.904;6.136;2024-03-17T06:32:22;2.97;;;2.70;;
12567;SDS011;6349;50.904;6.136;2024-03-17T06:34:23;2.80;;;2.50;;
12567;SDS011;6349;50.904;6.136;2024-03-17T06:36:24;3.87;;;2.30;;
12567;SDS011;6349;50.904;6.136;2024-03-17T06:38:24;3.40;;;2.50;;
12567;SDS011;6349;50.904;6.136;2024-03-17T06:40:25;4.10;;;2.43;;
12567;SDS011;6349;50.904;6.136;2024-03-17T06:42:25;2.33;;;2.13;;
12567;SDS011;6349;50.904;6.136;2024-03-17T06:44:27;2.87;;;2.30;;
12567;SDS011;6349;50.904;6.136;2024-03-17T06:46:30;2.90;;;2.30;;
12567;SDS011;6349;50.904;6.136;2024-03-17T06:48:31;2.30;;;2.10;;
12567;SDS011;6349;50.904;6.136;2024-03-17T06:50:32;2.33;;;2.00;;
12567;SDS011;6349;50.904;6.136;2024-03-17T06:52:33;2.53;;;2.30;;
12567;SDS011;6349;50.904;6.136;2024-03-17T06:54:34;2.87;;;2.13;;
12567;SDS011;6349;50.904;6.136;2024-03-17T06:56:35;3.13;;;2.37;;
12567;SDS011;6349;50.904;6.136;2024-03-17T06:58:37;2.50;;;2.30;;
12567;SDS011;6349;50.904;6.136;2024-03-17T07:00:38;2.37;;;2.13;;
12567;SDS011;6349;50.904;6.136;2024-03-17T07:02:38;2.23;;;2.03;;
12567;SDS011;6349;50.904;6.136;2024-03-17T07:04:40;3.03;;;2.47;;
12567;SDS011;6349;50.904;6.136;2024-03-17T07:06:41;3.43;;;2.10;;
12567;SDS011;6349;50.904;6.136;2024-03-17T07:08:41;2.30;;;2.10;;
12567;SDS011;6349;50.904;6.136;2024-03-17T07:10:42;2.00;;;1.80;;
12567;SDS011;6349;50.904;6.136;2024-03-17T07:12:43;2.73;;;2.53;;
12567;SDS011;6349;50.904;6.136;2024-03-17T07:14:43;2.40;;;2.20;;
12567;SDS011;6349;50.904;6.136;2024-03-17T07:16:44;3.03;;;2.40;;
12567;SDS011;6349;50.904;6.136;2024-03-17T07:18:44;3.03;;;2.13;;
12567;SDS011;6349;50.904;6.136;2024-03-17T07:20:45;2.60;;;2.40;;
12567;SDS011;6349;50.904;6.136;2024-03-17T07:22:48;2.30;;;2.10;;
12567;SDS011;6349;50.904;6.136;2024-03-17T07:24:50;3.20;;;2.40;;
12567;SDS011;6349;50.904;6.136;2024-03-17T07:26:55;2.73;;;2.23;;
12567;SDS011;6349;50.904;6.136;2024-03-17T07:28:56;2.73;;;2.53;;
12567;SDS011;6349;50.904;6.136;2024-03-17T07:30:57;2.33;;;2.13;;
12567;SDS011;6349;50.904;6.136;2024-03-17T07:33:00;2.47;;;2.27;;
12567;SDS011;6349;50.904;6.136;2024-03-17T07:35:00;2.60;;;2.40;;
12567;SDS011;6349;50.904;6.136;2024-03-17T07:37:01;2.67;;;2.47;;
12567;SDS011;6349;50.904;6.136;2024-03-17T07:39:03;3.90;;;2.97;;
12567;SDS011;6349;50.904;6.136;2024-03-17T07:41:07;2.80;;;2.60;;
12567;SDS011;6349;50.904;6.136;2024-03-17T07:43:09;2.50;;;2.30;;
12567;SDS011;6349;50.904;6.136;2024-03-17T07:45:09;4.23;;;2.63;;
12567;SDS011;6349;50.904;6.136;2024-03-17T07:47:11;2.63;;;2.20;;
12567;SDS011;6349;50.904;6.136;2024-03-17T07:49:11;2.97;;;2.47;;
12567;SDS011;6349;50.904;6.136;2024-03-17T07:51:13;3.13;;;2.73;;
12567;SDS011;6349;50.904;6.136;2024-03-17T07:53:14;4.20;;;2.50;;
12567;SDS011;6349;50.904;6.136;2024-03-17T07:55:15;5.87;;;2.60;;
12567;SDS011;6349;50.904;6.136;2024-03-17T07:57:16;3.10;;;2.63;;
12567;SDS011;6349;50.904;6.136;2024-03-17T07:59:16;2.83;;;2.63;;
12567;SDS011;6349;50.904;6.136;2024-03-17T08:01:18;3.10;;;2.80;;
12567;SDS011;6349;50.904;6.136;2024-03-17T08:03:18;3.97;;;3.00;;
12567;SDS011;6349;50.904;6.136;2024-03-17T08:05:19;3.20;;;2.90;;
12567;SDS011;6349;50.904;6.136;2024-03-17T08:07:20;3.70;;;3.10;;
12567;SDS011;6349;50.904;6.136;2024-03-17T08:09:20;3.00;;;2.80;;
12567;SDS011;6349;50.904;6.136;2024-03-17T08:11:22;3.20;;;2.70;;
12567;SDS011;6349;50.904;6.136;2024-03-17T08:13:24;4.00;;;3.07;;
12567;SDS011;6349;50.904;6.136;2024-03-17T08:15:25;3.40;;;3.10;;
12567;SDS011;6349;50.904;6.136;2024-03-17T08:17:25;5.23;;;3.40;;
12567;SDS011;6349;50.904;6.136;2024-03-17T08:19:26;3.43;;;3.13;;
12567;SDS011;6349;50.904;6.136;2024-03-17T08:21:28;4.83;;;2.90;;
12567;SDS011;6349;50.904;6.136;2024-03-17T08:23:29;3.50;;;2.90;;
12567;SDS011;6349;50.904;6.136;2024-03-17T08:25:30;3.50;;;3.00;;
12567;SDS011;6349;50.904;6.136;2024-03-17T08:27:31;3.60;;;2.90;;
12567;SDS011;6349;50.904;6.136;2024-03-17T08:29:32;3.30;;;3.00;;
12567;SDS011;6349;50.904;6.136;2024-03-17T08:31:35;3.37;;;3.03;;
12567;SDS011;6349;50.904;6.136;2024-03-17T08:33:37;3.87;;;2.97;;
12567;SDS011;6349;50.904;6.136;2024-03-17T08:35:37;3.43;;;3.07;;
12567;SDS011;6349;50.904;6.136;2024-03-17T08:37:38;4.77;;;3.33;;
12567;SDS011;6349;50.904;6.136;2024-03-17T08:39:38;3.63;;;3.13;;
12567;SDS011;6349;50.904;6.136;2024-03-17T08:41:39;4.17;;;3.10;;
12567;SDS011;6349;50.904;6.136;2024-03-17T08:43:39;3.83;;;3.13;;
12567;SDS011;6349;50.904;6.136;2024-03-17T08:45:42;4.73;;;3.27;;
12567;SDS011;6349;50.904;6.136;2024-03-17T08:47:43;3.50;;;3.00;;
12567;SDS011;6349;50.904;6.136;2024-03-17T08:49:44;3.63;;;3.33;;
12567;SDS011;6349;50.904;6.136;2024-03-17T08:51:44;3.60;;;2.97;;
12567;SDS011;6349;50.904;6.136;2024-03-17T08:53:45;3.80;;;3.10;;
12567;SDS011;6349;50.904;6.136;2024-03-17T08:55:45;4.87;;;3.23;;
12567;SDS011;6349;50.904;6.136;2024-03-17T08:57:46;3.67;;;3.20;;
12567;SDS011;6349;50.904;6.136;2024-03-17T08:59:46;3.40;;;3.10;;
12567;SDS011;6349;50.904;6.136;2024-03-17T09:01:47;4.03;;;3.27;;
12567;SDS011;6349;50.904;6.136;2024-03-17T09:03:47;3.97;;;3.30;;
12567;SDS011;6349;50.904;6.136;2024-03-17T09:05:49;3.60;;;3.10;;
12567;SDS011;6349;50.904;6.136;2024-03-17T09:07:50;3.40;;;3.10;;
12567;SDS011;6349;50.904;6.136;2024-03-17T09:09:51;4.73;;;3.30;;
12567;SDS011;6349;50.904;6.136;2024-03-17T09:11:51;3.53;;;3.23;;
12567;SDS011;6349;50.904;6.136;2024-03-17T09:13:52;5.00;;;2.87;;
12567;SDS011;6349;50.904;6.136;2024-03-17T09:15:56;4.37;;;3.37;;
12567;SDS011;6349;50.904;6.136;2024-03-17T09:17:59;3.83;;;3.07;;
12567;SDS011;6349;50.904;6.136;2024-03-17T09:20:00;3.93;;;3.17;;
12567;SDS011;6349;50.904;6.136;2024-03-17T09:22:00;3.60;;;3.30;;
12567;SDS011;6349;50.904;6.136;2024-03-17T09:24:01;3.50;;;3.20;;
12567;SDS011;6349;50.904;6.136;2024-03-17T09:26:06;4.13;;;3.00;;
12567;SDS011;6349;50.904;6.136;2024-03-17T09:28:08;3.90;;;3.20;;
12567;SDS011;6349;50.904;6.136;2024-03-17T09:30:09;4.57;;;3.20;;
12567;SDS011;6349;50.904;6.136;2024-03-17T09:32:11;3.90;;;3.00;;
12567;SDS011;6349;50.904;6.136;2024-03-17T09:34:17;3.37;;;3.00;;
12567;SDS011;6349;50.904;6.136;2024-03-17T09:36:18;3.87;;;2.93;;
12567;SDS011;6349;50.904;6.136;2024-03-17T09:38:20;3.10;;;2.80;;
12567;SDS011;6349;50.904;6.136;2024-03-17T09:40:21;2.97;;;2.67;;
12567;SDS011;6349;50.904;6.136;2024-03-17T09:42:22;3.53;;;2.60;;
12567;SDS011;6349;50.904;6.136;2024-03-17T09:44:24;3.17;;;2.60;;
12567;SDS011;6349;50.904;6.136;2024-03-17T09:46:25;3.13;;;2.67;;
12567;SDS011;6349;50.904;6.136;2024-03-17T09:48:29;2.77;;;2.50;;
12567;SDS011;6349;50.904;6.136;2024-03-17T09:50:29;2.57;;;2.13;;
12567;SDS011;6349;50.904;6.136;2024-03-17T09:52:31;3.77;;;2.60;;
12567;SDS011;6349;50.904;6.136;2024-03-17T09:54:34;5.20;;;2.30;;
12567;SDS011;6349;50.904;6.136;2024-03-17T09:56:35;4.00;;;2.30;;
12567;SDS011;6349;50.904;6.136;2024-03-17T09:58:35;2.97;;;2.43;;
12567;SDS011;6349;50.904;6.136;2024-03-17T10:00:36;3.70;;;2.33;;
12567;SDS011;6349;50.904;6.136;2024-03-17T10:02:37;4.40;;;2.57;;
12567;SDS011;6349;50.904;6.136;2024-03-17T10:04:43;3.53;;;2.57;;
12567;SDS011;6349;50.904;6.136;2024-03-17T10:06:44;2.40;;;2.03;;
12567;SDS011;6349;50.904;6.136;2024-03-17T10:08:47;2.60;;;2.10;;
12567;SDS011;6349;50.904;6.136;2024-03-17T10:10:52;3.25;;;2.30;;
12567;SDS011;6349;50.904;6.136;2024-03-17T10:12:56;2.67;;;2.40;;
12567;SDS011;6349;50.904;6.136;2024-03-17T10:14:59;2.60;;;2.27;;
12567;SDS011;6349;50.904;6.136;2024-03-17T10:17:01;2.80;;;2.30;;
12567;SDS011;6349;50.904;6.136;2024-03-17T10:19:14;2.30;;;2.10;;
12567;SDS011;6349;50.904;6.136;2024-03-17T10:21:25;3.60;;;2.30;;
12567;SDS011;6349;50.904;6.136;2024-03-17T10:23:27;2.55;;;2.30;;
12567;SDS011;6349;50.904;6.136;2024-03-17T10:25:28;3.30;;;2.42;;
12567;SDS011;6349;50.904;6.136;2024-03-17T10:27:30;3.38;;;2.03;;
12567;SDS011;6349;50.904;6.136;2024-03-17T10:31:32;3.17;;;2.30;;
12567;SDS011;6349;50.904;6.136;2024-03-17T10:33:40;2.85;;;2.50;;
12567;SDS011;6349;50.904;6.136;2024-03-17T10:35:42;3.28;;;2.15;;
12567;SDS011;6349;50.904;6.136;2024-03-17T10:37:59;3.83;;;2.33;;
12567;SDS011;6349;50.904;6.136;2024-03-17T10:40:01;2.53;;;2.20;;
12567;SDS011;6349;50.904;6.136;2024-03-17T10:42:04;2.45;;;1.95;;
12567;SDS011;6349;50.904;6.136;2024-03-17T10:44:05;3.25;;;2.38;;
12567;SDS011;6349;50.904;6.136;2024-03-17T10:46:07;3.28;;;2.30;;
12567;SDS011;6349;50.904;6.136;2024-03-17T10:48:08;3.33;;;2.10;;
12567;SDS011;6349;50.904;6.136;2024-03-17T10:50:14;2.95;;;2.03;;
12567;SDS011;6349;50.904;6.136;2024-03-17T10:52:20;4.43;;;2.10;;
12567;SDS011;6349;50.904;6.136;2024-03-17T10:54:23;3.88;;;2.15;;
12567;SDS011;6349;50.904;6.136;2024-03-17T10:56:28;3.28;;;2.00;;
12567;SDS011;6349;50.904;6.136;2024-03-17T10:58:38;2.90;;;2.20;;
12567;SDS011;6349;50.904;6.136;2024-03-17T11:00:48;3.50;;;2.20;;
12567;SDS011;6349;50.904;6.136;2024-03-17T11:02:54;2.65;;;1.90;;
12567;SDS011;6349;50.904;6.136;2024-03-17T11:07:17;2.90;;;2.03;;
12567;SDS011;6349;50.904;6.136;2024-03-17T11:09:19;3.47;;;2.20;;
12567;SDS011;6349;50.904;6.136;2024-03-17T11:11:36;3.95;;;2.13;;
12567;SDS011;6349;50.904;6.136;2024-03-17T11:13:41;2.40;;;2.15;;
12567;SDS011;6349;50.904;6.136;2024-03-17T11:15:42;2.30;;;2.10;;
12567;SDS011;6349;50.904;6.136;2024-03-17T11:17:43;3.95;;;2.20;;
12567;SDS011;6349;50.904;6.136;2024-03-17T11:19:44;3.35;;;2.20;;
12567;SDS011;6349;50.904;6.136;2024-03-17T11:24:41;4.10;;;2.20;;
12567;SDS011;6349;50.904;6.136;2024-03-17T11:26:42;5.15;;;2.13;;
12567;SDS011;6349;50.904;6.136;2024-03-17T11:30:49;3.28;;;2.25;;
12567;SDS011;6349;50.904;6.136;2024-03-17T11:35:35;2.33;;;2.08;;
12567;SDS011;6349;50.904;6.136;2024-03-17T11:37:41;3.60;;;1.92;;
12567;SDS011;6349;50.904;6.136;2024-03-17T11:39:46;3.88;;;2.10;;
12567;SDS011;6349;50.904;6.136;2024-03-17T11:41:52;3.08;;;2.00;;
12567;SDS011;6349;50.904;6.136;2024-03-17T11:44:12;2.15;;;1.95;;
12567;SDS011;6349;50.904;6.136;2024-03-17T11:46:14;4.10;;;2.35;;
12567;SDS011;6349;50.904;6.136;2024-03-17T11:48:15;3.47;;;1.77;;
12567;SDS011;6349;50.904;6.136;2024-03-17T11:50:17;3.33;;;2.33;;
12567;SDS011;6349;50.904;6.136;2024-03-17T11:52:18;5.35;;;2.20;;
12567;SDS011;6349;50.904;6.136;2024-03-17T11:54:20;4.07;;;2.00;;
12567;SDS011;6349;50.904;6.136;2024-03-17T11:56:23;2.70;;;2.00;;
12567;SDS011;6349;50.904;6.136;2024-03-17T11:58:24;3.42;;;2.10;;
12567;SDS011;6349;50.904;6.136;2024-03-17T12:00:25;3.80;;;2.17;;
12567;SDS011;6349;50.904;6.136;2024-03-17T12:02:26;4.70;;;2.33;;
12567;SDS011;6349;50.904;6.136;2024-03-17T12:04:30;2.85;;;2.20;;
12567;SDS011;6349;50.904;6.136;2024-03-17T12:06:31;4.20;;;2.30;;
12567;SDS011;6349;50.904;6.136;2024-03-17T12:08:32;2.97;;;2.40;;
12567;SDS011;6349;50.904;6.136;2024-03-17T12:10:33;4.68;;;2.20;;
12567;SDS011;6349;50.904;6.136;2024-03-17T12:12:34;2.47;;;2.10;;
12567;SDS011;6349;50.904;6.136;2024-03-17T12:14:35;4.93;;;3.50;;
12567;SDS011;6349;50.904;6.136;2024-03-17T12:16:37;3.08;;;2.10;;
12567;SDS011;6349;50.904;6.136;2024-03-17T12:18:37;3.53;;;2.50;;
12567;SDS011;6349;50.904;6.136;2024-03-17T12:20:41;3.40;;;2.40;;
12567;SDS011;6349;50.904;6.136;2024-03-17T12:22:41;3.08;;;2.28;;
12567;SDS011;6349;50.904;6.136;2024-03-17T12:24:43;3.28;;;2.28;;
12567;SDS011;6349;50.904;6.136;2024-03-17T12:26:44;2.58;;;2.17;;
12567;SDS011;6349;50.904;6.136;2024-03-17T12:28:46;2.70;;;2.22;;
12567;SDS011;6349;50.904;6.136;2024-03-17T12:30:48;2.53;;;2.03;;
12567;SDS011;6349;50.904;6.136;2024-03-17T12:32:50;2.85;;;2.10;;
12567;SDS011;6349;50.904;6.136;2024-03-17T12:34:52;2.63;;;2.42;;
12567;SDS011;6349;50.904;6.136;2024-03-17T12:36:55;2.78;;;2.20;;